sensor_id;sensor_type;location;lat;lon;timestamp;temperature;humidity
29431;DHT22;16404;49.902;10.074;2023-03-01T00:02:25;3.00;55.30
29431;DHT22;16404;49.902;10.074;2023-03-01T00:05:09;3.00;55.50
29431;DHT22;16404;49.902;10.074;2023-03-01T00:07:54;3.00;55.60
29431;DHT22;16404;49.902;10.074;2023-03-01T00:10:39;2.90;55.60
29431;DHT22;16404;49.902;10.074;2023-03-01T00:13:23;2.90;55.80
29431;DHT22;16404;49.902;10.074;2023-03-01T00:16:10;2.90;55.80
29431;DHT22;16404;49.902;10.074;2023-03-01T00:18:56;2.90;55.80
29431;DHT22;16404;49.902;10.074;2023-03-01T00:21:41;2.90;56.00
29431;DHT22;16404;49.902;10.074;2023-03-01T00:24:25;2.90;56.00
29431;DHT22;16404;49.902;10.074;2023-03-01T00:27:09;2.90;56.00
29431;DHT22;16404;49.902;10.074;2023-03-01T00:29:54;3.00;55.90
29431;DHT22;16404;49.902;10.074;2023-03-01T00:32:39;3.00;55.80
29431;DHT22;16404;49.902;10.074;2023-03-01T00:35:23;3.00;55.80
29431;DHT22;16404;49.902;10.074;2023-03-01T00:38:08;3.00;55.90
29431;DHT22;16404;49.902;10.074;2023-03-01T00:40:53;2.90;56.00
29431;DHT22;16404;49.902;10.074;2023-03-01T00:43:37;2.90;56.00
29431;DHT22;16404;49.902;10.074;2023-03-01T00:46:24;2.90;56.00
29431;DHT22;16404;49.902;10.074;2023-03-01T00:49:09;2.90;56.00
29431;DHT22;16404;49.902;10.074;2023-03-01T00:51:54;3.00;56.10
29431;DHT22;16404;49.902;10.074;2023-03-01T00:54:41;2.90;56.00
29431;DHT22;16404;49.902;10.074;2023-03-01T00:57:26;3.00;56.10
29431;DHT22;16404;49.902;10.074;2023-03-01T01:00:11;2.90;56.00
29431;DHT22;16404;49.902;10.074;2023-03-01T01:02:55;3.00;56.00
29431;DHT22;16404;49.902;10.074;2023-03-01T01:05:40;2.90;55.70
29431;DHT22;16404;49.902;10.074;2023-03-01T01:08:25;2.90;55.80
29431;DHT22;16404;49.902;10.074;2023-03-01T01:11:11;2.90;55.80
29431;DHT22;16404;49.902;10.074;2023-03-01T01:13:55;2.90;55.70
29431;DHT22;16404;49.902;10.074;2023-03-01T01:16:40;2.80;55.80
29431;DHT22;16404;49.902;10.074;2023-03-01T01:19:26;2.80;55.90
29431;DHT22;16404;49.902;10.074;2023-03-01T01:22:10;2.70;55.90
29431;DHT22;16404;49.902;10.074;2023-03-01T01:24:55;2.80;55.80
29431;DHT22;16404;49.902;10.074;2023-03-01T01:27:40;2.70;55.70
29431;DHT22;16404;49.902;10.074;2023-03-01T01:30:24;2.70;55.90
29431;DHT22;16404;49.902;10.074;2023-03-01T01:33:09;2.70;56.00
29431;DHT22;16404;49.902;10.074;2023-03-01T01:35:53;2.70;55.90
29431;DHT22;16404;49.902;10.074;2023-03-01T01:38:38;2.70;55.90
29431;DHT22;16404;49.902;10.074;2023-03-01T01:41:25;2.70;55.90
29431;DHT22;16404;49.902;10.074;2023-03-01T01:47:11;2.60;55.80
29431;DHT22;16404;49.902;10.074;2023-03-01T01:49:58;2.50;55.70
29431;DHT22;16404;49.902;10.074;2023-03-01T01:52:43;2.50;55.70
29431;DHT22;16404;49.902;10.074;2023-03-01T01:55:27;2.50;55.70
29431;DHT22;16404;49.902;10.074;2023-03-01T01:58:15;2.40;55.60
29431;DHT22;16404;49.902;10.074;2023-03-01T02:01:00;2.50;55.80
29431;DHT22;16404;49.902;10.074;2023-03-01T02:03:46;2.40;55.70
29431;DHT22;16404;49.902;10.074;2023-03-01T02:06:35;2.40;55.80
29431;DHT22;16404;49.902;10.074;2023-03-01T02:09:23;2.30;55.90
29431;DHT22;16404;49.902;10.074;2023-03-01T02:12:07;2.30;56.00
29431;DHT22;16404;49.902;10.074;2023-03-01T02:14:52;2.30;56.10
29431;DHT22;16404;49.902;10.074;2023-03-01T02:17:37;2.30;56.10
29431;DHT22;16404;49.902;10.074;2023-03-01T02:23:19;2.20;56.00
29431;DHT22;16404;49.902;10.074;2023-03-01T02:26:30;2.30;56.00
29431;DHT22;16404;49.902;10.074;2023-03-01T02:29:18;2.20;56.00
29431;DHT22;16404;49.902;10.074;2023-03-01T02:32:05;2.30;55.90
29431;DHT22;16404;49.902;10.074;2023-03-01T02:34:53;2.20;55.90
29431;DHT22;16404;49.902;10.074;2023-03-01T02:37:40;2.20;56.30
29431;DHT22;16404;49.902;10.074;2023-03-01T02:40:25;2.20;56.60
29431;DHT22;16404;49.902;10.074;2023-03-01T02:43:10;2.20;56.60
29431;DHT22;16404;49.902;10.074;2023-03-01T02:46:03;2.20;56.50
29431;DHT22;16404;49.902;10.074;2023-03-01T02:48:50;2.20;56.40
29431;DHT22;16404;49.902;10.074;2023-03-01T02:55:11;2.20;56.70
29431;DHT22;16404;49.902;10.074;2023-03-01T02:57:56;2.20;56.50
29431;DHT22;16404;49.902;10.074;2023-03-01T03:00:42;2.10;56.60
29431;DHT22;16404;49.902;10.074;2023-03-01T03:03:32;2.20;56.80
29431;DHT22;16404;49.902;10.074;2023-03-01T03:06:17;2.20;56.80
29431;DHT22;16404;49.902;10.074;2023-03-01T03:09:04;2.10;56.90
29431;DHT22;16404;49.902;10.074;2023-03-01T03:11:49;2.20;57.00
29431;DHT22;16404;49.902;10.074;2023-03-01T03:14:33;2.20;57.00
29431;DHT22;16404;49.902;10.074;2023-03-01T03:17:20;2.30;56.90
29431;DHT22;16404;49.902;10.074;2023-03-01T03:20:06;2.30;56.80
29431;DHT22;16404;49.902;10.074;2023-03-01T03:22:57;2.40;56.80
29431;DHT22;16404;49.902;10.074;2023-03-01T03:25:42;2.40;56.70
29431;DHT22;16404;49.902;10.074;2023-03-01T03:28:27;2.50;56.70
29431;DHT22;16404;49.902;10.074;2023-03-01T03:31:12;2.50;56.70
29431;DHT22;16404;49.902;10.074;2023-03-01T03:33:56;2.50;56.60
29431;DHT22;16404;49.902;10.074;2023-03-01T03:36:41;2.50;56.50
29431;DHT22;16404;49.902;10.074;2023-03-01T03:39:26;2.40;56.40
29431;DHT22;16404;49.902;10.074;2023-03-01T03:42:11;2.40;56.50
29431;DHT22;16404;49.902;10.074;2023-03-01T03:44:55;2.40;56.60
29431;DHT22;16404;49.902;10.074;2023-03-01T03:47:40;2.40;56.70
29431;DHT22;16404;49.902;10.074;2023-03-01T03:50:24;2.40;56.70
29431;DHT22;16404;49.902;10.074;2023-03-01T03:53:11;2.40;56.60
29431;DHT22;16404;49.902;10.074;2023-03-01T03:55:56;2.40;56.70
29431;DHT22;16404;49.902;10.074;2023-03-01T03:58:41;2.40;56.60
29431;DHT22;16404;49.902;10.074;2023-03-01T04:01:25;2.40;56.60
29431;DHT22;16404;49.902;10.074;2023-03-01T04:04:10;2.50;56.70
29431;DHT22;16404;49.902;10.074;2023-03-01T04:06:55;2.50;56.60
29431;DHT22;16404;49.902;10.074;2023-03-01T04:09:39;2.50;56.60
29431;DHT22;16404;49.902;10.074;2023-03-01T04:12:25;2.50;56.50
29431;DHT22;16404;49.902;10.074;2023-03-01T04:15:11;2.50;56.50
29431;DHT22;16404;49.902;10.074;2023-03-01T04:17:59;2.40;56.60
29431;DHT22;16404;49.902;10.074;2023-03-01T04:20:44;2.40;57.20
29431;DHT22;16404;49.902;10.074;2023-03-01T04:23:29;2.40;56.80
29431;DHT22;16404;49.902;10.074;2023-03-01T04:26:13;2.30;56.70
29431;DHT22;16404;49.902;10.074;2023-03-01T04:28:58;2.30;56.90
29431;DHT22;16404;49.902;10.074;2023-03-01T04:31:42;2.30;56.90
29431;DHT22;16404;49.902;10.074;2023-03-01T04:34:27;2.30;56.90
29431;DHT22;16404;49.902;10.074;2023-03-01T04:37:12;2.30;56.90
29431;DHT22;16404;49.902;10.074;2023-03-01T04:39:56;2.40;56.80
29431;DHT22;16404;49.902;10.074;2023-03-01T04:42:41;2.40;56.80
29431;DHT22;16404;49.902;10.074;2023-03-01T04:45:27;2.40;56.60
29431;DHT22;16404;49.902;10.074;2023-03-01T04:48:11;2.40;56.80
29431;DHT22;16404;49.902;10.074;2023-03-01T04:50:56;2.30;56.80
29431;DHT22;16404;49.902;10.074;2023-03-01T04:53:42;2.30;56.90
29431;DHT22;16404;49.902;10.074;2023-03-01T04:56:26;2.30;56.90
29431;DHT22;16404;49.902;10.074;2023-03-01T04:59:11;2.30;57.00
29431;DHT22;16404;49.902;10.074;2023-03-01T05:01:56;2.20;57.10
29431;DHT22;16404;49.902;10.074;2023-03-01T05:04:41;2.30;57.20
29431;DHT22;16404;49.902;10.074;2023-03-01T05:07:26;2.30;57.30
29431;DHT22;16404;49.902;10.074;2023-03-01T05:10:10;2.20;57.20
29431;DHT22;16404;49.902;10.074;2023-03-01T05:12:56;2.20;57.20
29431;DHT22;16404;49.902;10.074;2023-03-01T05:15:41;2.20;57.30
29431;DHT22;16404;49.902;10.074;2023-03-01T05:18:28;2.20;57.40
29431;DHT22;16404;49.902;10.074;2023-03-01T05:21:13;2.10;57.50
29431;DHT22;16404;49.902;10.074;2023-03-01T05:24:00;2.10;57.40
29431;DHT22;16404;49.902;10.074;2023-03-01T05:26:44;2.20;57.40
29431;DHT22;16404;49.902;10.074;2023-03-01T05:29:30;2.30;57.40
29431;DHT22;16404;49.902;10.074;2023-03-01T05:32:15;2.30;57.20
29431;DHT22;16404;49.902;10.074;2023-03-01T05:35:00;2.30;57.10
29431;DHT22;16404;49.902;10.074;2023-03-01T05:37:46;2.30;57.10
29431;DHT22;16404;49.902;10.074;2023-03-01T05:40:33;2.30;57.10
29431;DHT22;16404;49.902;10.074;2023-03-01T05:43:18;2.40;57.20
29431;DHT22;16404;49.902;10.074;2023-03-01T05:46:02;2.40;57.10
29431;DHT22;16404;49.902;10.074;2023-03-01T05:48:47;2.30;57.00
29431;DHT22;16404;49.902;10.074;2023-03-01T05:51:32;2.30;57.10
29431;DHT22;16404;49.902;10.074;2023-03-01T05:54:18;2.30;57.10
29431;DHT22;16404;49.902;10.074;2023-03-01T05:57:03;2.30;57.20
29431;DHT22;16404;49.902;10.074;2023-03-01T05:59:47;2.40;57.20
29431;DHT22;16404;49.902;10.074;2023-03-01T06:02:32;2.40;57.10
29431;DHT22;16404;49.902;10.074;2023-03-01T06:05:16;2.30;57.10
29431;DHT22;16404;49.902;10.074;2023-03-01T06:08:01;2.40;57.10
29431;DHT22;16404;49.902;10.074;2023-03-01T06:10:45;2.40;57.00
29431;DHT22;16404;49.902;10.074;2023-03-01T06:13:31;2.50;56.90
29431;DHT22;16404;49.902;10.074;2023-03-01T06:16:15;2.50;56.60
29431;DHT22;16404;49.902;10.074;2023-03-01T06:19:00;2.50;56.40
29431;DHT22;16404;49.902;10.074;2023-03-01T06:21:44;2.50;56.60
29431;DHT22;16404;49.902;10.074;2023-03-01T06:24:29;2.50;56.70
29431;DHT22;16404;49.902;10.074;2023-03-01T06:27:13;2.50;56.80
29431;DHT22;16404;49.902;10.074;2023-03-01T06:29:58;2.50;56.80
29431;DHT22;16404;49.902;10.074;2023-03-01T06:32:43;2.50;56.80
29431;DHT22;16404;49.902;10.074;2023-03-01T06:35:27;2.50;56.90
29431;DHT22;16404;49.902;10.074;2023-03-01T06:38:13;2.50;56.90
29431;DHT22;16404;49.902;10.074;2023-03-01T06:40:59;2.50;56.90
29431;DHT22;16404;49.902;10.074;2023-03-01T06:43:43;2.50;56.90
29431;DHT22;16404;49.902;10.074;2023-03-01T06:46:28;2.60;56.90
29431;DHT22;16404;49.902;10.074;2023-03-01T06:49:12;2.50;56.90
29431;DHT22;16404;49.902;10.074;2023-03-01T06:51:57;2.50;57.00
29431;DHT22;16404;49.902;10.074;2023-03-01T06:54:42;2.60;57.10
29431;DHT22;16404;49.902;10.074;2023-03-01T06:57:27;2.60;57.10
29431;DHT22;16404;49.902;10.074;2023-03-01T07:00:12;2.60;57.20
29431;DHT22;16404;49.902;10.074;2023-03-01T07:03:00;2.60;57.30
29431;DHT22;16404;49.902;10.074;2023-03-01T07:05:49;2.60;57.30
29431;DHT22;16404;49.902;10.074;2023-03-01T07:08:33;2.80;57.30
29431;DHT22;16404;49.902;10.074;2023-03-01T07:11:18;2.80;57.10
29431;DHT22;16404;49.902;10.074;2023-03-01T07:14:02;2.90;57.10
29431;DHT22;16404;49.902;10.074;2023-03-01T07:16:47;2.90;57.10
29431;DHT22;16404;49.902;10.074;2023-03-01T07:19:32;2.90;57.10
29431;DHT22;16404;49.902;10.074;2023-03-01T07:22:17;3.00;57.20
29431;DHT22;16404;49.902;10.074;2023-03-01T07:25:01;3.10;57.10
29431;DHT22;16404;49.902;10.074;2023-03-01T07:27:53;3.30;57.00
29431;DHT22;16404;49.902;10.074;2023-03-01T07:30:37;3.40;56.90
29431;DHT22;16404;49.902;10.074;2023-03-01T07:33:21;3.50;56.70
29431;DHT22;16404;49.902;10.074;2023-03-01T07:36:06;3.60;56.60
29431;DHT22;16404;49.902;10.074;2023-03-01T07:38:51;3.70;56.40
29431;DHT22;16404;49.902;10.074;2023-03-01T07:41:36;3.80;56.40
29431;DHT22;16404;49.902;10.074;2023-03-01T07:44:20;3.90;56.40
29431;DHT22;16404;49.902;10.074;2023-03-01T07:47:04;4.10;56.30
29431;DHT22;16404;49.902;10.074;2023-03-01T07:49:49;4.30;55.90
29431;DHT22;16404;49.902;10.074;2023-03-01T07:52:34;4.40;55.70
29431;DHT22;16404;49.902;10.074;2023-03-01T07:55:18;4.60;55.50
29431;DHT22;16404;49.902;10.074;2023-03-01T07:58:04;4.80;55.30
29431;DHT22;16404;49.902;10.074;2023-03-01T08:00:49;4.90;55.10
29431;DHT22;16404;49.902;10.074;2023-03-01T08:03:34;5.00;54.90
29431;DHT22;16404;49.902;10.074;2023-03-01T08:06:19;5.10;54.70
29431;DHT22;16404;49.902;10.074;2023-03-01T08:09:03;5.20;54.60
29431;DHT22;16404;49.902;10.074;2023-03-01T08:11:48;5.40;54.50
29431;DHT22;16404;49.902;10.074;2023-03-01T08:14:33;5.50;54.30
29431;DHT22;16404;49.902;10.074;2023-03-01T08:17:17;5.80;54.10
29431;DHT22;16404;49.902;10.074;2023-03-01T08:20:02;5.90;53.70
29431;DHT22;16404;49.902;10.074;2023-03-01T08:22:50;6.20;53.40
29431;DHT22;16404;49.902;10.074;2023-03-01T08:25:34;6.50;53.00
29431;DHT22;16404;49.902;10.074;2023-03-01T08:28:19;6.70;52.60
29431;DHT22;16404;49.902;10.074;2023-03-01T08:31:13;7.10;52.00
29431;DHT22;16404;49.902;10.074;2023-03-01T08:34:00;7.30;51.50
29431;DHT22;16404;49.902;10.074;2023-03-01T08:36:45;7.70;51.50
29431;DHT22;16404;49.902;10.074;2023-03-01T08:39:30;8.00;50.90
29431;DHT22;16404;49.902;10.074;2023-03-01T08:42:15;8.30;50.40
29431;DHT22;16404;49.902;10.074;2023-03-01T08:45:04;8.60;49.70
29431;DHT22;16404;49.902;10.074;2023-03-01T08:47:52;8.80;48.90
29431;DHT22;16404;49.902;10.074;2023-03-01T08:50:37;9.00;48.30
29431;DHT22;16404;49.902;10.074;2023-03-01T08:53:21;9.20;48.10
29431;DHT22;16404;49.902;10.074;2023-03-01T08:56:08;9.40;47.90
29431;DHT22;16404;49.902;10.074;2023-03-01T08:58:56;9.60;47.30
29431;DHT22;16404;49.902;10.074;2023-03-01T09:01:41;9.80;46.80
29431;DHT22;16404;49.902;10.074;2023-03-01T09:04:27;9.90;46.30
29431;DHT22;16404;49.902;10.074;2023-03-01T09:07:12;10.00;45.90
29431;DHT22;16404;49.902;10.074;2023-03-01T09:09:56;10.20;45.80
29431;DHT22;16404;49.902;10.074;2023-03-01T09:12:41;10.40;45.70
29431;DHT22;16404;49.902;10.074;2023-03-01T09:15:25;10.70;45.40
29431;DHT22;16404;49.902;10.074;2023-03-01T09:18:10;10.80;45.10
29431;DHT22;16404;49.902;10.074;2023-03-01T09:21:24;11.00;44.90
29431;DHT22;16404;49.902;10.074;2023-03-01T09:24:13;11.20;43.50
29431;DHT22;16404;49.902;10.074;2023-03-01T09:26:58;11.40;43.40
29431;DHT22;16404;49.902;10.074;2023-03-01T09:29:42;11.50;43.10
29431;DHT22;16404;49.902;10.074;2023-03-01T09:32:30;11.60;43.00
29431;DHT22;16404;49.902;10.074;2023-03-01T09:35:14;11.60;42.50
29431;DHT22;16404;49.902;10.074;2023-03-01T09:37:59;11.60;42.30
29431;DHT22;16404;49.902;10.074;2023-03-01T09:40:44;11.50;42.20
29431;DHT22;16404;49.902;10.074;2023-03-01T09:46:15;11.50;42.20
29431;DHT22;16404;49.902;10.074;2023-03-01T09:49:14;11.40;41.90
29431;DHT22;16404;49.902;10.074;2023-03-01T09:52:25;11.30;41.80
29431;DHT22;16404;49.902;10.074;2023-03-01T09:55:15;11.20;41.70
29431;DHT22;16404;49.902;10.074;2023-03-01T10:10:38;10.20;41.90
29431;DHT22;16404;49.902;10.074;2023-03-01T10:14:04;9.90;42.40
29431;DHT22;16404;49.902;10.074;2023-03-01T10:19:31;9.40;43.30
29431;DHT22;16404;49.902;10.074;2023-03-01T10:22:21;9.20;43.60
29431;DHT22;16404;49.902;10.074;2023-03-01T10:25:12;9.10;43.70
29431;DHT22;16404;49.902;10.074;2023-03-01T10:28:05;8.90;43.90
29431;DHT22;16404;49.902;10.074;2023-03-01T10:30:54;8.80;44.10
29431;DHT22;16404;49.902;10.074;2023-03-01T10:33:39;8.80;44.50
29431;DHT22;16404;49.902;10.074;2023-03-01T10:36:24;8.80;44.70
29431;DHT22;16404;49.902;10.074;2023-03-01T10:39:21;8.60;44.60
29431;DHT22;16404;49.902;10.074;2023-03-01T10:42:19;8.60;44.40
29431;DHT22;16404;49.902;10.074;2023-03-01T10:45:23;8.50;44.50
29431;DHT22;16404;49.902;10.074;2023-03-01T10:53:49;8.30;44.70
29431;DHT22;16404;49.902;10.074;2023-03-01T10:56:47;8.20;44.70
29431;DHT22;16404;49.902;10.074;2023-03-01T10:59:37;8.20;44.80
29431;DHT22;16404;49.902;10.074;2023-03-01T11:02:28;8.30;44.80
29431;DHT22;16404;49.902;10.074;2023-03-01T11:07:59;8.30;44.70
29431;DHT22;16404;49.902;10.074;2023-03-01T11:10:43;8.20;44.90
29431;DHT22;16404;49.902;10.074;2023-03-01T11:13:28;8.30;45.10
29431;DHT22;16404;49.902;10.074;2023-03-01T11:16:13;8.30;45.00
29431;DHT22;16404;49.902;10.074;2023-03-01T11:19:13;8.30;44.90
29431;DHT22;16404;49.902;10.074;2023-03-01T11:24:51;8.40;44.80
29431;DHT22;16404;49.902;10.074;2023-03-01T11:27:44;8.40;44.90
29431;DHT22;16404;49.902;10.074;2023-03-01T11:30:38;8.50;45.00
29431;DHT22;16404;49.902;10.074;2023-03-01T11:36:43;8.50;44.80
29431;DHT22;16404;49.902;10.074;2023-03-01T11:39:58;8.50;44.80
29431;DHT22;16404;49.902;10.074;2023-03-01T11:58:25;8.60;44.20
29431;DHT22;16404;49.902;10.074;2023-03-01T12:01:40;8.60;44.50
29431;DHT22;16404;49.902;10.074;2023-03-01T12:07:24;8.80;44.60
29431;DHT22;16404;49.902;10.074;2023-03-01T12:13:35;8.90;44.30
29431;DHT22;16404;49.902;10.074;2023-03-01T12:19:55;9.00;44.10
29431;DHT22;16404;49.902;10.074;2023-03-01T12:26:30;9.20;44.30
29431;DHT22;16404;49.902;10.074;2023-03-01T12:29:35;9.20;44.20
29431;DHT22;16404;49.902;10.074;2023-03-01T12:35:14;9.40;44.40
29431;DHT22;16404;49.902;10.074;2023-03-01T12:38:23;9.40;44.30
29431;DHT22;16404;49.902;10.074;2023-03-01T12:50:40;9.60;44.30
29431;DHT22;16404;49.902;10.074;2023-03-01T12:56:17;9.80;44.20
29431;DHT22;16404;49.902;10.074;2023-03-01T12:59:29;9.80;43.90
29431;DHT22;16404;49.902;10.074;2023-03-01T13:02:34;9.80;43.60
29431;DHT22;16404;49.902;10.074;2023-03-01T13:11:20;9.90;43.80
29431;DHT22;16404;49.902;10.074;2023-03-01T13:14:44;9.90;43.70
29431;DHT22;16404;49.902;10.074;2023-03-01T13:17:39;9.90;43.50
29431;DHT22;16404;49.902;10.074;2023-03-01T13:26:14;10.00;43.70
29431;DHT22;16404;49.902;10.074;2023-03-01T13:29:00;10.10;43.70
29431;DHT22;16404;49.902;10.074;2023-03-01T13:34:44;10.20;43.70
29431;DHT22;16404;49.902;10.074;2023-03-01T13:37:32;10.20;43.70
29431;DHT22;16404;49.902;10.074;2023-03-01T13:43:34;10.30;43.50
29431;DHT22;16404;49.902;10.074;2023-03-01T13:46:24;10.30;43.20
29431;DHT22;16404;49.902;10.074;2023-03-01T13:49:18;10.30;43.10
29431;DHT22;16404;49.902;10.074;2023-03-01T13:52:03;10.30;42.80
29431;DHT22;16404;49.902;10.074;2023-03-01T13:54:49;10.30;43.00
29431;DHT22;16404;49.902;10.074;2023-03-01T13:57:36;10.30;43.20
29431;DHT22;16404;49.902;10.074;2023-03-01T14:03:19;10.50;42.90
29431;DHT22;16404;49.902;10.074;2023-03-01T14:06:08;10.50;42.80
29431;DHT22;16404;49.902;10.074;2023-03-01T14:09:16;10.50;42.60
29431;DHT22;16404;49.902;10.074;2023-03-01T14:15:06;10.60;42.60
29431;DHT22;16404;49.902;10.074;2023-03-01T14:18:07;10.70;42.80
29431;DHT22;16404;49.902;10.074;2023-03-01T14:20:53;10.70;42.60
29431;DHT22;16404;49.902;10.074;2023-03-01T14:23:38;10.80;42.50
29431;DHT22;16404;49.902;10.074;2023-03-01T14:26:24;10.70;42.10
29431;DHT22;16404;49.902;10.074;2023-03-01T14:29:36;10.80;42.00
29431;DHT22;16404;49.902;10.074;2023-03-01T14:32:25;10.70;41.90
29431;DHT22;16404;49.902;10.074;2023-03-01T14:35:22;10.80;42.10
29431;DHT22;16404;49.902;10.074;2023-03-01T14:38:21;10.80;42.20
29431;DHT22;16404;49.902;10.074;2023-03-01T14:41:09;10.90;42.20
29431;DHT22;16404;49.902;10.074;2023-03-01T14:44:01;11.00;42.10
29431;DHT22;16404;49.902;10.074;2023-03-01T14:46:47;10.90;41.90
29431;DHT22;16404;49.902;10.074;2023-03-01T14:49:35;11.00;41.90
29431;DHT22;16404;49.902;10.074;2023-03-01T14:52:22;11.00;42.00
29431;DHT22;16404;49.902;10.074;2023-03-01T14:55:18;11.10;41.90
29431;DHT22;16404;49.902;10.074;2023-03-01T14:58:04;11.10;41.70
29431;DHT22;16404;49.902;10.074;2023-03-01T15:01:02;11.10;41.40
29431;DHT22;16404;49.902;10.074;2023-03-01T15:03:48;11.10;41.20
29431;DHT22;16404;49.902;10.074;2023-03-01T15:06:33;11.00;41.20
29431;DHT22;16404;49.902;10.074;2023-03-01T15:09:18;11.00;41.40
29431;DHT22;16404;49.902;10.074;2023-03-01T15:15:21;11.00;41.60
29431;DHT22;16404;49.902;10.074;2023-03-01T15:18:28;11.00;41.60
29431;DHT22;16404;49.902;10.074;2023-03-01T15:21:43;11.10;41.60
29431;DHT22;16404;49.902;10.074;2023-03-01T15:24:29;11.10;41.40
29431;DHT22;16404;49.902;10.074;2023-03-01T15:27:19;11.10;41.40
29431;DHT22;16404;49.902;10.074;2023-03-01T15:30:04;11.10;41.60
29431;DHT22;16404;49.902;10.074;2023-03-01T15:32:49;11.00;42.30
29431;DHT22;16404;49.902;10.074;2023-03-01T15:36:30;11.10;41.80
29431;DHT22;16404;49.902;10.074;2023-03-01T15:48:20;10.80;42.10
29431;DHT22;16404;49.902;10.074;2023-03-01T15:51:10;10.80;42.10
29431;DHT22;16404;49.902;10.074;2023-03-01T15:53:56;10.80;42.10
29431;DHT22;16404;49.902;10.074;2023-03-01T15:56:42;10.80;42.10
29431;DHT22;16404;49.902;10.074;2023-03-01T15:59:28;10.70;42.00
29431;DHT22;16404;49.902;10.074;2023-03-01T16:02:13;10.70;42.10
29431;DHT22;16404;49.902;10.074;2023-03-01T16:04:58;10.60;42.30
29431;DHT22;16404;49.902;10.074;2023-03-01T16:07:42;10.60;42.50
29431;DHT22;16404;49.902;10.074;2023-03-01T16:10:27;10.60;42.60
29431;DHT22;16404;49.902;10.074;2023-03-01T16:13:12;10.50;42.50
29431;DHT22;16404;49.902;10.074;2023-03-01T16:15:57;10.60;42.70
29431;DHT22;16404;49.902;10.074;2023-03-01T16:18:44;10.50;42.60
29431;DHT22;16404;49.902;10.074;2023-03-01T16:21:29;10.50;42.90
29431;DHT22;16404;49.902;10.074;2023-03-01T16:24:14;10.50;42.90
29431;DHT22;16404;49.902;10.074;2023-03-01T16:26:59;10.50;43.10
29431;DHT22;16404;49.902;10.074;2023-03-01T16:29:43;10.40;43.20
29431;DHT22;16404;49.902;10.074;2023-03-01T16:32:28;10.30;43.30
29431;DHT22;16404;49.902;10.074;2023-03-01T16:35:17;10.20;43.30
29431;DHT22;16404;49.902;10.074;2023-03-01T16:38:02;10.10;43.30
29431;DHT22;16404;49.902;10.074;2023-03-01T16:40:48;10.10;43.40
29431;DHT22;16404;49.902;10.074;2023-03-01T16:43:33;10.00;43.50
29431;DHT22;16404;49.902;10.074;2023-03-01T16:46:24;9.90;43.60
29431;DHT22;16404;49.902;10.074;2023-03-01T16:49:09;9.90;43.80
29431;DHT22;16404;49.902;10.074;2023-03-01T16:51:54;9.80;43.90
29431;DHT22;16404;49.902;10.074;2023-03-01T16:54:38;9.80;44.00
29431;DHT22;16404;49.902;10.074;2023-03-01T16:57:23;9.70;44.10
29431;DHT22;16404;49.902;10.074;2023-03-01T17:00:10;9.70;44.20
29431;DHT22;16404;49.902;10.074;2023-03-01T17:02:57;9.60;44.20
29431;DHT22;16404;49.902;10.074;2023-03-01T17:05:41;9.60;44.30
29431;DHT22;16404;49.902;10.074;2023-03-01T17:08:26;9.50;44.50
29431;DHT22;16404;49.902;10.074;2023-03-01T17:11:16;9.50;44.70
29431;DHT22;16404;49.902;10.074;2023-03-01T17:14:01;9.30;44.80
29431;DHT22;16404;49.902;10.074;2023-03-01T17:16:46;9.30;45.00
29431;DHT22;16404;49.902;10.074;2023-03-01T17:19:30;9.20;45.20
29431;DHT22;16404;49.902;10.074;2023-03-01T17:22:16;9.10;45.40
29431;DHT22;16404;49.902;10.074;2023-03-01T17:25:01;9.00;45.40
29431;DHT22;16404;49.902;10.074;2023-03-01T17:27:45;8.90;45.50
29431;DHT22;16404;49.902;10.074;2023-03-01T17:30:30;8.90;45.80
29431;DHT22;16404;49.902;10.074;2023-03-01T17:33:15;8.80;45.90
29431;DHT22;16404;49.902;10.074;2023-03-01T17:35:59;8.80;46.00
29431;DHT22;16404;49.902;10.074;2023-03-01T17:38:44;8.70;46.00
29431;DHT22;16404;49.902;10.074;2023-03-01T17:41:29;8.70;46.00
29431;DHT22;16404;49.902;10.074;2023-03-01T17:44:14;8.60;46.30
29431;DHT22;16404;49.902;10.074;2023-03-01T17:46:59;8.50;46.40
29431;DHT22;16404;49.902;10.074;2023-03-01T17:49:43;8.50;46.50
29431;DHT22;16404;49.902;10.074;2023-03-01T17:52:28;8.50;46.50
29431;DHT22;16404;49.902;10.074;2023-03-01T17:55:12;8.40;46.60
29431;DHT22;16404;49.902;10.074;2023-03-01T17:57:57;8.20;46.90
29431;DHT22;16404;49.902;10.074;2023-03-01T18:00:42;8.20;47.20
29431;DHT22;16404;49.902;10.074;2023-03-01T18:03:26;8.10;47.40
29431;DHT22;16404;49.902;10.074;2023-03-01T18:06:16;8.00;47.60
29431;DHT22;16404;49.902;10.074;2023-03-01T18:09:01;7.90;47.70
29431;DHT22;16404;49.902;10.074;2023-03-01T18:11:45;7.90;47.90
29431;DHT22;16404;49.902;10.074;2023-03-01T18:14:30;7.90;48.00
29431;DHT22;16404;49.902;10.074;2023-03-01T18:17:16;7.90;48.10
29431;DHT22;16404;49.902;10.074;2023-03-01T18:20:01;7.80;48.10
29431;DHT22;16404;49.902;10.074;2023-03-01T18:22:45;7.80;48.20
29431;DHT22;16404;49.902;10.074;2023-03-01T18:25:31;7.70;48.20
29431;DHT22;16404;49.902;10.074;2023-03-01T18:28:15;7.60;48.30
29431;DHT22;16404;49.902;10.074;2023-03-01T18:31:06;7.60;48.50
29431;DHT22;16404;49.902;10.074;2023-03-01T18:33:56;7.60;48.60
29431;DHT22;16404;49.902;10.074;2023-03-01T18:36:41;7.50;48.60
29431;DHT22;16404;49.902;10.074;2023-03-01T18:39:25;7.50;48.80
29431;DHT22;16404;49.902;10.074;2023-03-01T18:42:10;7.50;48.80
29431;DHT22;16404;49.902;10.074;2023-03-01T18:44:55;7.50;48.90
29431;DHT22;16404;49.902;10.074;2023-03-01T18:47:39;7.40;48.90
29431;DHT22;16404;49.902;10.074;2023-03-01T18:50:24;7.40;48.90
29431;DHT22;16404;49.902;10.074;2023-03-01T18:53:09;7.50;48.90
29431;DHT22;16404;49.902;10.074;2023-03-01T18:55:58;7.50;48.80
29431;DHT22;16404;49.902;10.074;2023-03-01T18:58:43;7.40;48.90
29431;DHT22;16404;49.902;10.074;2023-03-01T19:01:28;7.30;49.00
29431;DHT22;16404;49.902;10.074;2023-03-01T19:04:14;7.20;49.10
29431;DHT22;16404;49.902;10.074;2023-03-01T19:06:58;7.20;49.30
29431;DHT22;16404;49.902;10.074;2023-03-01T19:09:45;7.10;49.50
29431;DHT22;16404;49.902;10.074;2023-03-01T19:12:29;7.10;49.60
29431;DHT22;16404;49.902;10.074;2023-03-01T19:15:14;7.00;49.60
29431;DHT22;16404;49.902;10.074;2023-03-01T19:17:59;7.00;49.80
29431;DHT22;16404;49.902;10.074;2023-03-01T19:20:47;7.00;49.90
29431;DHT22;16404;49.902;10.074;2023-03-01T19:23:32;7.00;50.00
29431;DHT22;16404;49.902;10.074;2023-03-01T19:26:20;7.00;50.00
29431;DHT22;16404;49.902;10.074;2023-03-01T19:29:18;7.00;50.00
29431;DHT22;16404;49.902;10.074;2023-03-01T19:32:02;7.00;50.00
29431;DHT22;16404;49.902;10.074;2023-03-01T19:34:47;7.00;50.10
29431;DHT22;16404;49.902;10.074;2023-03-01T19:37:33;6.90;50.00